sensor_id;sensor_type;location;lat;lon;timestamp;P1;durP1;ratioP1;P2;durP2;ratioP2
65238;SDS011;51827;51.186;6.926;2023-08-07T00:00:59;5.30;;;1.70;;
65238;SDS011;51827;51.186;6.926;2023-08-07T00:01:59;6.07;;;1.33;;
65238;SDS011;51827;51.186;6.926;2023-08-07T00:03:00;5.10;;;1.80;;
65238;SDS011;51827;51.186;6.926;2023-08-07T00:04:00;7.47;;;1.70;;
65238;SDS011;51827;51.186;6.926;2023-08-07T00:05:00;3.37;;;1.30;;
65238;SDS011;51827;51.186;6.926;2023-08-07T00:06:01;5.87;;;1.50;;
65238;SDS011;51827;51.186;6.926;2023-08-07T00:07:01;7.63;;;2.10;;
65238;SDS011;51827;51.186;6.926;2023-08-07T00:08:01;4.80;;;1.30;;
65238;SDS011;51827;51.186;6.926;2023-08-07T00:09:02;5.40;;;1.40;;
65238;SDS011;51827;51.186;6.926;2023-08-07T00:10:02;7.43;;;1.53;;
65238;SDS011;51827;51.186;6.926;2023-08-07T00:11:06;5.25;;;1.67;;
65238;SDS011;51827;51.186;6.926;2023-08-07T00:12:10;5.18;;;1.63;;
65238;SDS011;51827;51.186;6.926;2023-08-07T00:13:10;5.77;;;1.60;;
65238;SDS011;51827;51.186;6.926;2023-08-07T00:14:10;5.40;;;1.67;;
65238;SDS011;51827;51.186;6.926;2023-08-07T00:15:10;5.90;;;1.53;;
65238;SDS011;51827;51.186;6.926;2023-08-07T00:16:11;5.07;;;1.43;;
65238;SDS011;51827;51.186;6.926;2023-08-07T00:17:11;5.33;;;1.40;;
65238;SDS011;51827;51.186;6.926;2023-08-07T00:18:11;4.80;;;1.63;;
65238;SDS011;51827;51.186;6.926;2023-08-07T00:19:12;6.37;;;1.57;;
65238;SDS011;51827;51.186;6.926;2023-08-07T00:20:12;4.07;;;1.23;;
65238;SDS011;51827;51.186;6.926;2023-08-07T00:21:15;3.37;;;1.30;;
65238;SDS011;51827;51.186;6.926;2023-08-07T00:22:15;6.32;;;1.70;;
65238;SDS011;51827;51.186;6.926;2023-08-07T00:23:16;4.60;;;1.50;;
65238;SDS011;51827;51.186;6.926;2023-08-07T00:24:16;7.30;;;1.70;;
65238;SDS011;51827;51.186;6.926;2023-08-07T00:25:16;4.20;;;1.30;;
65238;SDS011;51827;51.186;6.926;2023-08-07T00:26:17;8.20;;;1.37;;
65238;SDS011;51827;51.186;6.926;2023-08-07T00:27:17;5.45;;;1.33;;
65238;SDS011;51827;51.186;6.926;2023-08-07T00:28:17;3.97;;;1.53;;
65238;SDS011;51827;51.186;6.926;2023-08-07T00:29:18;4.97;;;1.37;;
65238;SDS011;51827;51.186;6.926;2023-08-07T00:30:18;4.63;;;1.33;;
65238;SDS011;51827;51.186;6.926;2023-08-07T00:31:18;4.30;;;1.20;;
65238;SDS011;51827;51.186;6.926;2023-08-07T00:32:18;4.50;;;1.43;;
65238;SDS011;51827;51.186;6.926;2023-08-07T00:33:19;4.57;;;1.20;;
65238;SDS011;51827;51.186;6.926;2023-08-07T00:34:19;6.63;;;1.80;;
65238;SDS011;51827;51.186;6.926;2023-08-07T00:35:19;6.63;;;1.80;;
65238;SDS011;51827;51.186;6.926;2023-08-07T00:36:19;5.03;;;1.40;;
65238;SDS011;51827;51.186;6.926;2023-08-07T00:37:20;5.23;;;1.30;;
65238;SDS011;51827;51.186;6.926;2023-08-07T00:38:20;4.73;;;1.70;;
65238;SDS011;51827;51.186;6.926;2023-08-07T00:39:20;4.43;;;1.40;;
65238;SDS011;51827;51.186;6.926;2023-08-07T00:40:20;4.77;;;1.40;;
65238;SDS011;51827;51.186;6.926;2023-08-07T00:41:21;4.17;;;1.50;;
65238;SDS011;51827;51.186;6.926;2023-08-07T00:42:21;6.93;;;1.47;;
65238;SDS011;51827;51.186;6.926;2023-08-07T00:43:21;7.87;;;1.60;;
65238;SDS011;51827;51.186;6.926;2023-08-07T00:44:22;5.20;;;1.30;;
65238;SDS011;51827;51.186;6.926;2023-08-07T00:45:22;9.30;;;1.50;;
65238;SDS011;51827;51.186;6.926;2023-08-07T00:46:22;3.77;;;1.40;;
65238;SDS011;51827;51.186;6.926;2023-08-07T00:47:23;5.57;;;1.60;;
65238;SDS011;51827;51.186;6.926;2023-08-07T00:48:23;4.83;;;1.50;;
65238;SDS011;51827;51.186;6.926;2023-08-07T00:49:24;4.87;;;1.80;;
65238;SDS011;51827;51.186;6.926;2023-08-07T00:50:25;4.25;;;1.35;;
65238;SDS011;51827;51.186;6.926;2023-08-07T00:51:25;3.33;;;1.40;;
65238;SDS011;51827;51.186;6.926;2023-08-07T00:52:25;6.07;;;1.43;;
65238;SDS011;51827;51.186;6.926;2023-08-07T00:53:26;6.83;;;1.93;;
65238;SDS011;51827;51.186;6.926;2023-08-07T00:54:26;5.03;;;1.47;;
65238;SDS011;51827;51.186;6.926;2023-08-07T00:55:26;5.35;;;1.30;;
65238;SDS011;51827;51.186;6.926;2023-08-07T00:56:28;5.05;;;1.67;;
65238;SDS011;51827;51.186;6.926;2023-08-07T00:57:30;5.88;;;1.67;;
65238;SDS011;51827;51.186;6.926;2023-08-07T00:58:30;4.85;;;1.50;;
65238;SDS011;51827;51.186;6.926;2023-08-07T00:59:31;5.82;;;1.60;;
65238;SDS011;51827;51.186;6.926;2023-08-07T01:00:32;7.03;;;1.80;;
65238;SDS011;51827;51.186;6.926;2023-08-07T01:01:32;4.53;;;1.30;;
65238;SDS011;51827;51.186;6.926;2023-08-07T01:02:33;5.30;;;1.40;;
65238;SDS011;51827;51.186;6.926;2023-08-07T01:03:33;7.63;;;1.50;;
65238;SDS011;51827;51.186;6.926;2023-08-07T01:04:33;5.17;;;1.80;;
65238;SDS011;51827;51.186;6.926;2023-08-07T01:05:34;7.93;;;1.47;;
65238;SDS011;51827;51.186;6.926;2023-08-07T01:06:34;5.28;;;1.42;;
65238;SDS011;51827;51.186;6.926;2023-08-07T01:07:34;8.67;;;1.40;;
65238;SDS011;51827;51.186;6.926;2023-08-07T01:08:34;6.03;;;1.30;;
65238;SDS011;51827;51.186;6.926;2023-08-07T01:09:35;6.13;;;1.77;;
65238;SDS011;51827;51.186;6.926;2023-08-07T01:11:48;4.50;;;1.50;;
65238;SDS011;51827;51.186;6.926;2023-08-07T01:12:53;4.88;;;1.38;;
65238;SDS011;51827;51.186;6.926;2023-08-07T01:14:00;3.38;;;1.35;;
65238;SDS011;51827;51.186;6.926;2023-08-07T01:15:12;5.18;;;1.52;;
65238;SDS011;51827;51.186;6.926;2023-08-07T01:16:26;8.57;;;1.77;;
65238;SDS011;51827;51.186;6.926;2023-08-07T01:17:31;5.30;;;1.55;;
65238;SDS011;51827;51.186;6.926;2023-08-07T01:18:32;3.80;;;1.25;;
65238;SDS011;51827;51.186;6.926;2023-08-07T01:19:34;5.55;;;1.30;;
65238;SDS011;51827;51.186;6.926;2023-08-07T01:20:35;5.68;;;1.58;;
65238;SDS011;51827;51.186;6.926;2023-08-07T01:21:36;4.80;;;1.40;;
65238;SDS011;51827;51.186;6.926;2023-08-07T01:22:36;7.10;;;1.90;;
65238;SDS011;51827;51.186;6.926;2023-08-07T01:23:36;5.33;;;1.37;;
65238;SDS011;51827;51.186;6.926;2023-08-07T01:24:37;6.67;;;1.70;;
65238;SDS011;51827;51.186;6.926;2023-08-07T01:25:39;6.53;;;2.00;;
65238;SDS011;51827;51.186;6.926;2023-08-07T01:26:39;6.30;;;1.70;;
65238;SDS011;51827;51.186;6.926;2023-08-07T01:29:00;6.00;;;1.50;;
65238;SDS011;51827;51.186;6.926;2023-08-07T01:30:12;8.40;;;2.03;;
65238;SDS011;51827;51.186;6.926;2023-08-07T01:31:14;5.07;;;1.38;;
65238;SDS011;51827;51.186;6.926;2023-08-07T01:32:22;6.13;;;1.65;;
65238;SDS011;51827;51.186;6.926;2023-08-07T01:33:50;6.03;;;1.65;;
65238;SDS011;51827;51.186;6.926;2023-08-07T01:34:54;6.82;;;1.58;;
65238;SDS011;51827;51.186;6.926;2023-08-07T01:35:55;5.57;;;1.52;;
65238;SDS011;51827;51.186;6.926;2023-08-07T01:36:58;7.45;;;1.80;;
65238;SDS011;51827;51.186;6.926;2023-08-07T01:37:59;5.40;;;1.50;;
65238;SDS011;51827;51.186;6.926;2023-08-07T01:39:01;12.02;;;2.03;;
65238;SDS011;51827;51.186;6.926;2023-08-07T01:40:02;5.68;;;1.65;;
65238;SDS011;51827;51.186;6.926;2023-08-07T01:41:03;6.85;;;1.95;;
65238;SDS011;51827;51.186;6.926;2023-08-07T01:42:04;5.25;;;1.60;;
65238;SDS011;51827;51.186;6.926;2023-08-07T01:43:05;5.63;;;1.67;;
65238;SDS011;51827;51.186;6.926;2023-08-07T01:44:05;7.32;;;1.55;;
65238;SDS011;51827;51.186;6.926;2023-08-07T01:45:06;6.05;;;1.70;;
65238;SDS011;51827;51.186;6.926;2023-08-07T01:46:06;4.32;;;1.50;;
65238;SDS011;51827;51.186;6.926;2023-08-07T01:47:10;9.50;;;2.05;;
65238;SDS011;51827;51.186;6.926;2023-08-07T01:48:10;7.47;;;1.70;;
65238;SDS011;51827;51.186;6.926;2023-08-07T01:49:11;6.82;;;1.77;;
65238;SDS011;51827;51.186;6.926;2023-08-07T01:50:11;5.80;;;1.80;;
65238;SDS011;51827;51.186;6.926;2023-08-07T01:51:12;4.40;;;1.60;;
65238;SDS011;51827;51.186;6.926;2023-08-07T01:52:12;8.70;;;1.83;;
65238;SDS011;51827;51.186;6.926;2023-08-07T01:53:12;8.17;;;2.17;;
65238;SDS011;51827;51.186;6.926;2023-08-07T01:54:12;5.47;;;1.47;;
65238;SDS011;51827;51.186;6.926;2023-08-07T01:55:13;6.23;;;1.63;;
65238;SDS011;51827;51.186;6.926;2023-08-07T01:57:14;6.73;;;1.70;;
65238;SDS011;51827;51.186;6.926;2023-08-07T01:58:14;6.83;;;1.90;;
65238;SDS011;51827;51.186;6.926;2023-08-07T01:59:15;3.83;;;1.40;;
65238;SDS011;51827;51.186;6.926;2023-08-07T02:00:15;6.10;;;1.80;;
65238;SDS011;51827;51.186;6.926;2023-08-07T02:01:15;6.55;;;1.85;;
65238;SDS011;51827;51.186;6.926;2023-08-07T02:02:16;6.73;;;1.70;;
65238;SDS011;51827;51.186;6.926;2023-08-07T02:03:16;7.70;;;1.77;;
65238;SDS011;51827;51.186;6.926;2023-08-07T02:04:16;9.30;;;2.00;;
65238;SDS011;51827;51.186;6.926;2023-08-07T02:05:17;10.10;;;1.83;;
65238;SDS011;51827;51.186;6.926;2023-08-07T02:06:17;7.87;;;1.90;;
65238;SDS011;51827;51.186;6.926;2023-08-07T02:07:17;6.13;;;1.60;;
65238;SDS011;51827;51.186;6.926;2023-08-07T02:08:17;6.90;;;1.77;;
65238;SDS011;51827;51.186;6.926;2023-08-07T02:09:18;8.80;;;2.20;;
65238;SDS011;51827;51.186;6.926;2023-08-07T02:10:18;5.87;;;1.80;;
65238;SDS011;51827;51.186;6.926;2023-08-07T02:11:18;4.50;;;1.40;;
65238;SDS011;51827;51.186;6.926;2023-08-07T02:12:18;9.13;;;2.10;;
65238;SDS011;51827;51.186;6.926;2023-08-07T02:13:19;6.20;;;1.97;;
65238;SDS011;51827;51.186;6.926;2023-08-07T02:14:19;7.63;;;1.80;;
65238;SDS011;51827;51.186;6.926;2023-08-07T02:15:19;7.53;;;2.10;;
65238;SDS011;51827;51.186;6.926;2023-08-07T02:16:31;5.40;;;1.60;;
65238;SDS011;51827;51.186;6.926;2023-08-07T02:17:35;6.30;;;1.60;;
65238;SDS011;51827;51.186;6.926;2023-08-07T02:18:36;9.03;;;1.90;;
65238;SDS011;51827;51.186;6.926;2023-08-07T02:19:36;6.80;;;1.63;;
65238;SDS011;51827;51.186;6.926;2023-08-07T02:20:36;6.30;;;1.70;;
65238;SDS011;51827;51.186;6.926;2023-08-07T02:21:37;5.60;;;1.50;;
65238;SDS011;51827;51.186;6.926;2023-08-07T02:22:37;8.90;;;2.17;;
65238;SDS011;51827;51.186;6.926;2023-08-07T02:23:37;7.60;;;1.47;;
65238;SDS011;51827;51.186;6.926;2023-08-07T02:24:37;8.23;;;1.60;;
65238;SDS011;51827;51.186;6.926;2023-08-07T02:25:38;6.10;;;1.63;;
65238;SDS011;51827;51.186;6.926;2023-08-07T02:26:38;8.17;;;1.80;;
65238;SDS011;51827;51.186;6.926;2023-08-07T02:27:38;6.07;;;1.90;;
65238;SDS011;51827;51.186;6.926;2023-08-07T02:28:39;6.85;;;1.75;;
65238;SDS011;51827;51.186;6.926;2023-08-07T02:29:39;9.83;;;2.00;;
65238;SDS011;51827;51.186;6.926;2023-08-07T02:30:39;7.03;;;1.80;;
65238;SDS011;51827;51.186;6.926;2023-08-07T02:31:39;5.73;;;2.00;;
65238;SDS011;51827;51.186;6.926;2023-08-07T02:32:40;7.87;;;2.30;;
65238;SDS011;51827;51.186;6.926;2023-08-07T02:33:43;6.47;;;1.93;;
65238;SDS011;51827;51.186;6.926;2023-08-07T02:34:44;5.63;;;1.58;;
65238;SDS011;51827;51.186;6.926;2023-08-07T02:35:44;9.10;;;1.70;;
65238;SDS011;51827;51.186;6.926;2023-08-07T02:36:45;7.57;;;1.90;;
65238;SDS011;51827;51.186;6.926;2023-08-07T02:37:45;5.60;;;1.67;;
65238;SDS011;51827;51.186;6.926;2023-08-07T02:38:45;5.33;;;1.83;;
65238;SDS011;51827;51.186;6.926;2023-08-07T02:39:45;5.97;;;2.10;;
65238;SDS011;51827;51.186;6.926;2023-08-07T02:40:46;4.47;;;1.90;;
65238;SDS011;51827;51.186;6.926;2023-08-07T02:41:46;6.80;;;1.67;;
65238;SDS011;51827;51.186;6.926;2023-08-07T02:42:46;5.93;;;1.63;;
65238;SDS011;51827;51.186;6.926;2023-08-07T02:43:46;5.27;;;1.60;;
65238;SDS011;51827;51.186;6.926;2023-08-07T02:44:48;4.85;;;1.60;;
65238;SDS011;51827;51.186;6.926;2023-08-07T02:45:48;6.70;;;1.90;;
65238;SDS011;51827;51.186;6.926;2023-08-07T02:46:48;6.40;;;1.67;;
65238;SDS011;51827;51.186;6.926;2023-08-07T02:47:49;6.23;;;1.80;;
65238;SDS011;51827;51.186;6.926;2023-08-07T02:48:49;5.47;;;1.60;;
65238;SDS011;51827;51.186;6.926;2023-08-07T02:49:49;7.57;;;2.00;;
65238;SDS011;51827;51.186;6.926;2023-08-07T02:50:49;3.77;;;1.67;;
65238;SDS011;51827;51.186;6.926;2023-08-07T02:51:50;4.67;;;1.60;;
65238;SDS011;51827;51.186;6.926;2023-08-07T02:52:50;4.50;;;1.70;;
65238;SDS011;51827;51.186;6.926;2023-08-07T02:53:50;6.70;;;1.90;;
65238;SDS011;51827;51.186;6.926;2023-08-07T02:54:50;5.73;;;1.83;;
65238;SDS011;51827;51.186;6.926;2023-08-07T02:55:51;8.07;;;1.77;;
65238;SDS011;51827;51.186;6.926;2023-08-07T02:56:54;9.63;;;1.83;;
65238;SDS011;51827;51.186;6.926;2023-08-07T02:57:54;4.05;;;1.50;;
65238;SDS011;51827;51.186;6.926;2023-08-07T02:58:57;5.10;;;1.60;;
65238;SDS011;51827;51.186;6.926;2023-08-07T03:00:00;5.28;;;1.80;;
65238;SDS011;51827;51.186;6.926;2023-08-07T03:01:03;6.15;;;1.70;;
65238;SDS011;51827;51.186;6.926;2023-08-07T03:02:04;7.07;;;2.08;;
65238;SDS011;51827;51.186;6.926;2023-08-07T03:03:05;6.10;;;1.80;;
65238;SDS011;51827;51.186;6.926;2023-08-07T03:04:05;6.60;;;2.00;;
65238;SDS011;51827;51.186;6.926;2023-08-07T03:05:06;5.67;;;1.80;;
65238;SDS011;51827;51.186;6.926;2023-08-07T03:06:06;5.15;;;1.55;;
65238;SDS011;51827;51.186;6.926;2023-08-07T03:07:06;5.03;;;1.40;;
65238;SDS011;51827;51.186;6.926;2023-08-07T03:08:07;6.33;;;1.70;;
65238;SDS011;51827;51.186;6.926;2023-08-07T03:09:07;5.23;;;1.90;;
65238;SDS011;51827;51.186;6.926;2023-08-07T03:10:07;8.80;;;1.90;;
65238;SDS011;51827;51.186;6.926;2023-08-07T03:11:08;7.97;;;1.80;;
65238;SDS011;51827;51.186;6.926;2023-08-07T03:12:08;5.00;;;1.70;;
65238;SDS011;51827;51.186;6.926;2023-08-07T03:13:08;6.47;;;1.98;;
65238;SDS011;51827;51.186;6.926;2023-08-07T03:14:09;7.83;;;1.80;;
65238;SDS011;51827;51.186;6.926;2023-08-07T03:15:09;5.23;;;1.50;;
65238;SDS011;51827;51.186;6.926;2023-08-07T03:16:09;6.10;;;2.15;;
65238;SDS011;51827;51.186;6.926;2023-08-07T03:17:10;7.97;;;2.03;;
65238;SDS011;51827;51.186;6.926;2023-08-07T03:18:10;6.80;;;1.97;;
65238;SDS011;51827;51.186;6.926;2023-08-07T03:19:10;6.53;;;1.77;;
65238;SDS011;51827;51.186;6.926;2023-08-07T03:20:10;5.00;;;1.80;;
65238;SDS011;51827;51.186;6.926;2023-08-07T03:21:11;8.75;;;2.05;;
65238;SDS011;51827;51.186;6.926;2023-08-07T03:22:11;7.63;;;2.00;;
65238;SDS011;51827;51.186;6.926;2023-08-07T03:23:12;3.87;;;1.50;;
65238;SDS011;51827;51.186;6.926;2023-08-07T03:24:12;5.10;;;1.93;;
65238;SDS011;51827;51.186;6.926;2023-08-07T03:25:12;7.38;;;1.80;;
65238;SDS011;51827;51.186;6.926;2023-08-07T03:26:13;7.20;;;1.90;;
65238;SDS011;51827;51.186;6.926;2023-08-07T03:27:13;4.97;;;1.70;;
65238;SDS011;51827;51.186;6.926;2023-08-07T03:28:13;6.57;;;1.83;;
65238;SDS011;51827;51.186;6.926;2023-08-07T03:29:14;3.97;;;1.63;;
65238;SDS011;51827;51.186;6.926;2023-08-07T03:30:14;6.23;;;1.80;;
65238;SDS011;51827;51.186;6.926;2023-08-07T03:31:14;8.80;;;1.70;;
65238;SDS011;51827;51.186;6.926;2023-08-07T03:32:15;4.82;;;1.75;;
65238;SDS011;51827;51.186;6.926;2023-08-07T03:33:16;7.68;;;1.90;;
65238;SDS011;51827;51.186;6.926;2023-08-07T03:34:16;4.53;;;1.50;;
65238;SDS011;51827;51.186;6.926;2023-08-07T03:35:16;5.77;;;2.00;;
65238;SDS011;51827;51.186;6.926;2023-08-07T03:36:16;6.03;;;1.70;;
65238;SDS011;51827;51.186;6.926;2023-08-07T03:37:17;5.77;;;1.70;;
65238;SDS011;51827;51.186;6.926;2023-08-07T03:38:17;6.40;;;1.80;;
65238;SDS011;51827;51.186;6.926;2023-08-07T03:39:18;7.70;;;2.25;;
65238;SDS011;51827;51.186;6.926;2023-08-07T03:40:18;7.60;;;2.10;;
65238;SDS011;51827;51.186;6.926;2023-08-07T03:41:18;7.23;;;2.00;;
65238;SDS011;51827;51.186;6.926;2023-08-07T03:42:18;10.53;;;2.10;;
65238;SDS011;51827;51.186;6.926;2023-08-07T03:43:19;8.07;;;2.00;;
65238;SDS011;51827;51.186;6.926;2023-08-07T03:44:19;13.93;;;2.30;;
65238;SDS011;51827;51.186;6.926;2023-08-07T03:45:19;7.57;;;2.20;;
65238;SDS011;51827;51.186;6.926;2023-08-07T03:46:19;7.87;;;2.07;;
65238;SDS011;51827;51.186;6.926;2023-08-07T03:47:20;7.33;;;1.90;;
65238;SDS011;51827;51.186;6.926;2023-08-07T03:48:20;9.90;;;2.30;;
65238;SDS011;51827;51.186;6.926;2023-08-07T03:49:20;9.83;;;2.03;;
65238;SDS011;51827;51.186;6.926;2023-08-07T03:50:20;9.23;;;2.30;;
65238;SDS011;51827;51.186;6.926;2023-08-07T03:51:24;6.70;;;1.93;;
65238;SDS011;51827;51.186;6.926;2023-08-07T03:52:24;8.32;;;2.20;;
65238;SDS011;51827;51.186;6.926;2023-08-07T03:53:24;5.53;;;1.90;;
65238;SDS011;51827;51.186;6.926;2023-08-07T03:54:25;5.03;;;1.87;;
65238;SDS011;51827;51.186;6.926;2023-08-07T03:55:25;9.00;;;2.00;;
65238;SDS011;51827;51.186;6.926;2023-08-07T03:56:25;10.47;;;2.37;;
65238;SDS011;51827;51.186;6.926;2023-08-07T03:57:25;6.70;;;2.37;;
65238;SDS011;51827;51.186;6.926;2023-08-07T03:58:26;9.83;;;2.80;;
65238;SDS011;51827;51.186;6.926;2023-08-07T03:59:26;10.83;;;2.83;;
65238;SDS011;51827;51.186;6.926;2023-08-07T04:00:26;8.70;;;2.47;;
65238;SDS011;51827;51.186;6.926;2023-08-07T04:01:26;6.53;;;2.60;;
65238;SDS011;51827;51.186;6.926;2023-08-07T04:02:27;8.43;;;2.73;;
65238;SDS011;51827;51.186;6.926;2023-08-07T04:03:27;6.77;;;2.53;;
65238;SDS011;51827;51.186;6.926;2023-08-07T04:04:27;6.70;;;2.47;;
65238;SDS011;51827;51.186;6.926;2023-08-07T04:05:27;5.43;;;2.40;;
65238;SDS011;51827;51.186;6.926;2023-08-07T04:06:28;12.23;;;3.47;;
65238;SDS011;51827;51.186;6.926;2023-08-07T04:07:28;9.30;;;3.70;;
65238;SDS011;51827;51.186;6.926;2023-08-07T04:08:28;9.40;;;3.63;;
65238;SDS011;51827;51.186;6.926;2023-08-07T04:09:28;11.70;;;4.13;;
65238;SDS011;51827;51.186;6.926;2023-08-07T04:10:29;12.57;;;5.33;;
65238;SDS011;51827;51.186;6.926;2023-08-07T04:11:29;11.07;;;4.20;;
65238;SDS011;51827;51.186;6.926;2023-08-07T04:12:29;11.30;;;4.17;;
65238;SDS011;51827;51.186;6.926;2023-08-07T04:13:30;11.70;;;4.10;;
65238;SDS011;51827;51.186;6.926;2023-08-07T04:14:31;9.07;;;3.78;;
65238;SDS011;51827;51.186;6.926;2023-08-07T04:15:31;9.87;;;3.47;;
65238;SDS011;51827;51.186;6.926;2023-08-07T04:16:31;11.43;;;3.97;;
65238;SDS011;51827;51.186;6.926;2023-08-07T04:17:32;12.27;;;3.33;;
65238;SDS011;51827;51.186;6.926;2023-08-07T04:18:32;6.65;;;3.00;;
65238;SDS011;51827;51.186;6.926;2023-08-07T04:19:33;8.82;;;3.20;;
65238;SDS011;51827;51.186;6.926;2023-08-07T04:20:33;7.97;;;2.73;;
65238;SDS011;51827;51.186;6.926;2023-08-07T04:21:33;8.47;;;3.10;;
65238;SDS011;51827;51.186;6.926;2023-08-07T04:22:33;9.87;;;2.80;;
65238;SDS011;51827;51.186;6.926;2023-08-07T04:23:34;8.50;;;2.83;;
65238;SDS011;51827;51.186;6.926;2023-08-07T04:24:34;15.53;;;2.83;;
65238;SDS011;51827;51.186;6.926;2023-08-07T04:25:34;8.73;;;3.07;;
65238;SDS011;51827;51.186;6.926;2023-08-07T04:26:34;6.10;;;2.80;;
65238;SDS011;51827;51.186;6.926;2023-08-07T04:27:35;8.17;;;2.60;;
65238;SDS011;51827;51.186;6.926;2023-08-07T04:28:35;6.67;;;2.53;;
65238;SDS011;51827;51.186;6.926;2023-08-07T04:29:35;10.47;;;2.67;;
65238;SDS011;51827;51.186;6.926;2023-08-07T04:30:35;6.33;;;2.37;;
65238;SDS011;51827;51.186;6.926;2023-08-07T04:31:38;6.10;;;2.38;;
65238;SDS011;51827;51.186;6.926;2023-08-07T04:32:39;8.77;;;2.57;;
65238;SDS011;51827;51.186;6.926;2023-08-07T04:33:39;10.27;;;2.57;;
65238;SDS011;51827;51.186;6.926;2023-08-07T04:34:39;9.80;;;2.33;;
65238;SDS011;51827;51.186;6.926;2023-08-07T04:35:39;10.83;;;2.47;;
65238;SDS011;51827;51.186;6.926;2023-08-07T04:36:40;9.30;;;2.40;;
65238;SDS011;51827;51.186;6.926;2023-08-07T04:37:40;8.20;;;2.37;;
65238;SDS011;51827;51.186;6.926;2023-08-07T04:38:40;7.67;;;2.30;;
65238;SDS011;51827;51.186;6.926;2023-08-07T04:39:40;5.63;;;2.03;;
65238;SDS011;51827;51.186;6.926;2023-08-07T04:40:47;6.93;;;2.20;;
65238;SDS011;51827;51.186;6.926;2023-08-07T04:41:48;8.40;;;2.40;;
65238;SDS011;51827;51.186;6.926;2023-08-07T04:42:49;5.60;;;2.13;;
65238;SDS011;51827;51.186;6.926;2023-08-07T04:43:49;7.63;;;2.22;;
65238;SDS011;51827;51.186;6.926;2023-08-07T04:44:50;10.10;;;2.40;;
65238;SDS011;51827;51.186;6.926;2023-08-07T04:45:50;5.77;;;1.70;;
65238;SDS011;51827;51.186;6.926;2023-08-07T04:46:53;10.03;;;2.17;;
65238;SDS011;51827;51.186;6.926;2023-08-07T04:47:53;12.85;;;2.28;;
65238;SDS011;51827;51.186;6.926;2023-08-07T04:48:53;14.60;;;2.70;;
65238;SDS011;51827;51.186;6.926;2023-08-07T04:49:54;10.53;;;2.93;;
65238;SDS011;51827;51.186;6.926;2023-08-07T04:50:54;12.37;;;3.10;;
65238;SDS011;51827;51.186;6.926;2023-08-07T04:51:54;8.63;;;2.70;;
65238;SDS011;51827;51.186;6.926;2023-08-07T04:52:54;10.03;;;2.60;;
65238;SDS011;51827;51.186;6.926;2023-08-07T04:53:57;11.30;;;2.43;;
65238;SDS011;51827;51.186;6.926;2023-08-07T04:54:57;12.63;;;2.65;;
65238;SDS011;51827;51.186;6.926;2023-08-07T04:55:59;10.57;;;2.63;;
65238;SDS011;51827;51.186;6.926;2023-08-07T04:56:59;12.70;;;2.47;;
65238;SDS011;51827;51.186;6.926;2023-08-07T04:57:59;11.33;;;2.47;;
65238;SDS011;51827;51.186;6.926;2023-08-07T04:59:00;12.67;;;2.50;;
65238;SDS011;51827;51.186;6.926;2023-08-07T05:00:03;9.80;;;2.50;;
65238;SDS011;51827;51.186;6.926;2023-08-07T05:01:04;11.70;;;2.75;;
65238;SDS011;51827;51.186;6.926;2023-08-07T05:02:04;10.73;;;2.33;;
65238;SDS011;51827;51.186;6.926;2023-08-07T05:03:05;12.45;;;2.63;;
65238;SDS011;51827;51.186;6.926;2023-08-07T05:04:05;8.77;;;2.23;;
65238;SDS011;51827;51.186;6.926;2023-08-07T05:05:05;10.50;;;2.10;;
65238;SDS011;51827;51.186;6.926;2023-08-07T05:06:06;9.90;;;2.97;;
65238;SDS011;51827;51.186;6.926;2023-08-07T05:07:06;6.70;;;2.30;;
65238;SDS011;51827;51.186;6.926;2023-08-07T05:08:07;11.67;;;2.77;;
65238;SDS011;51827;51.186;6.926;2023-08-07T05:09:07;8.33;;;2.27;;
65238;SDS011;51827;51.186;6.926;2023-08-07T05:10:08;7.70;;;2.10;;
65238;SDS011;51827;51.186;6.926;2023-08-07T05:11:12;9.18;;;2.22;;
65238;SDS011;51827;51.186;6.926;2023-08-07T05:12:12;8.43;;;2.23;;
65238;SDS011;51827;51.186;6.926;2023-08-07T05:13:12;6.67;;;2.10;;
65238;SDS011;51827;51.186;6.926;2023-08-07T05:14:12;3.90;;;2.00;;
65238;SDS011;51827;51.186;6.926;2023-08-07T05:15:13;9.20;;;2.37;;
65238;SDS011;51827;51.186;6.926;2023-08-07T05:16:13;13.53;;;1.80;;
65238;SDS011;51827;51.186;6.926;2023-08-07T05:17:13;9.27;;;2.00;;
65238;SDS011;51827;51.186;6.926;2023-08-07T05:18:14;7.10;;;2.13;;
65238;SDS011;51827;51.186;6.926;2023-08-07T05:19:14;8.23;;;2.40;;
65238;SDS011;51827;51.186;6.926;2023-08-07T05:20:14;3.63;;;1.67;;
65238;SDS011;51827;51.186;6.926;2023-08-07T05:21:15;8.13;;;1.97;;
65238;SDS011;51827;51.186;6.926;2023-08-07T05:22:15;7.63;;;2.20;;
65238;SDS011;51827;51.186;6.926;2023-08-07T05:23:15;6.57;;;2.00;;
65238;SDS011;51827;51.186;6.926;2023-08-07T05:24:16;13.07;;;2.07;;
65238;SDS011;51827;51.186;6.926;2023-08-07T05:25:19;8.15;;;1.98;;
65238;SDS011;51827;51.186;6.926;2023-08-07T05:26:19;6.37;;;1.80;;
65238;SDS011;51827;51.186;6.926;2023-08-07T05:27:19;6.43;;;1.93;;
65238;SDS011;51827;51.186;6.926;2023-08-07T05:28:20;6.10;;;2.07;;
65238;SDS011;51827;51.186;6.926;2023-08-07T05:29:20;8.13;;;2.17;;
65238;SDS011;51827;51.186;6.926;2023-08-07T05:30:20;4.40;;;1.63;;
65238;SDS011;51827;51.186;6.926;2023-08-07T05:31:20;7.67;;;2.10;;
65238;SDS011;51827;51.186;6.926;2023-08-07T05:32:21;9.17;;;2.20;;
65238;SDS011;51827;51.186;6.926;2023-08-07T05:33:21;11.83;;;2.23;;
65238;SDS011;51827;51.186;6.926;2023-08-07T05:34:21;6.23;;;2.00;;
65238;SDS011;51827;51.186;6.926;2023-08-07T05:35:21;5.70;;;2.20;;
65238;SDS011;51827;51.186;6.926;2023-08-07T05:36:22;7.33;;;1.97;;
65238;SDS011;51827;51.186;6.926;2023-08-07T05:37:22;8.07;;;1.90;;
65238;SDS011;51827;51.186;6.926;2023-08-07T05:38:22;7.33;;;2.33;;
65238;SDS011;51827;51.186;6.926;2023-08-07T05:39:23;7.07;;;2.10;;
65238;SDS011;51827;51.186;6.926;2023-08-07T05:40:23;7.17;;;2.00;;
65238;SDS011;51827;51.186;6.926;2023-08-07T05:41:23;3.47;;;1.70;;
65238;SDS011;51827;51.186;6.926;2023-08-07T05:42:23;7.10;;;1.77;;
65238;SDS011;51827;51.186;6.926;2023-08-07T05:43:24;5.80;;;1.80;;
65238;SDS011;51827;51.186;6.926;2023-08-07T05:44:24;5.87;;;1.90;;
65238;SDS011;51827;51.186;6.926;2023-08-07T05:45:24;7.40;;;1.90;;
65238;SDS011;51827;51.186;6.926;2023-08-07T05:46:25;6.97;;;2.20;;
65238;SDS011;51827;51.186;6.926;2023-08-07T05:47:25;8.93;;;2.30;;
65238;SDS011;51827;51.186;6.926;2023-08-07T05:48:25;6.47;;;1.90;;
65238;SDS011;51827;51.186;6.926;2023-08-07T05:49:26;11.75;;;2.50;;
65238;SDS011;51827;51.186;6.926;2023-08-07T05:50:26;7.67;;;2.23;;
65238;SDS011;51827;51.186;6.926;2023-08-07T05:51:26;5.27;;;1.90;;
65238;SDS011;51827;51.186;6.926;2023-08-07T05:52:27;6.10;;;2.00;;
65238;SDS011;51827;51.186;6.926;2023-08-07T05:53:27;5.63;;;1.90;;
65238;SDS011;51827;51.186;6.926;2023-08-07T05:54:27;6.17;;;1.90;;
65238;SDS011;51827;51.186;6.926;2023-08-07T05:55:27;3.97;;;1.90;;
65238;SDS011;51827;51.186;6.926;2023-08-07T05:56:28;7.63;;;2.07;;
65238;SDS011;51827;51.186;6.926;2023-08-07T05:57:28;6.17;;;1.83;;
65238;SDS011;51827;51.186;6.926;2023-08-07T05:58:28;6.93;;;2.00;;
65238;SDS011;51827;51.186;6.926;2023-08-07T05:59:28;4.67;;;1.70;;
65238;SDS011;51827;51.186;6.926;2023-08-07T06:00:32;5.00;;;1.80;;
65238;SDS011;51827;51.186;6.926;2023-08-07T06:01:32;6.25;;;2.03;;
65238;SDS011;51827;51.186;6.926;2023-08-07T06:02:32;5.27;;;1.80;;
65238;SDS011;51827;51.186;6.926;2023-08-07T06:03:32;4.90;;;1.80;;
65238;SDS011;51827;51.186;6.926;2023-08-07T06:04:33;4.60;;;1.93;;
65238;SDS011;51827;51.186;6.926;2023-08-07T06:05:33;4.63;;;1.80;;
65238;SDS011;51827;51.186;6.926;2023-08-07T06:06:34;7.30;;;2.13;;
65238;SDS011;51827;51.186;6.926;2023-08-07T06:07:34;7.33;;;2.10;;
65238;SDS011;51827;51.186;6.926;2023-08-07T06:08:34;5.63;;;1.80;;
65238;SDS011;51827;51.186;6.926;2023-08-07T06:09:35;5.13;;;1.63;;